createdAt,value
2023-02-27T00:01:05.068Z,6.61
2023-02-27T00:03:32.940Z,6.56
2023-02-27T00:06:00.876Z,6.54
2023-02-27T00:08:28.834Z,6.51
2023-02-27T00:10:58.111Z,6.48
2023-02-27T00:13:25.988Z,6.43
2023-02-27T00:15:56.393Z,6.39
2023-02-27T00:18:24.332Z,6.39
2023-02-27T00:20:52.227Z,6.36
2023-02-27T00:23:20.080Z,6.33
2023-02-27T00:25:47.980Z,6.34
2023-02-27T00:28:17.264Z,6.32
2023-02-27T00:30:45.174Z,6.27
2023-02-27T00:33:13.060Z,6.25
2023-02-27T00:35:40.947Z,6.23
2023-02-27T00:38:08.830Z,6.24
2023-02-27T00:40:36.899Z,6.25
2023-02-27T00:43:04.827Z,6.25
2023-02-27T00:45:34.066Z,6.22
2023-02-27T00:48:01.956Z,6.25
2023-02-27T00:50:29.847Z,6.24
2023-02-27T00:52:57.725Z,6.23
2023-02-27T00:55:27.213Z,6.20
2023-02-27T00:57:55.377Z,6.19
2023-02-27T01:00:23.433Z,6.17
2023-02-27T01:02:52.760Z,6.18
2023-02-27T01:05:20.825Z,6.17
2023-02-27T01:07:48.675Z,6.13
2023-02-27T01:10:16.606Z,6.11
2023-02-27T01:12:44.470Z,6.05
2023-02-27T01:15:12.448Z,6.02
2023-02-27T01:17:40.474Z,5.99
2023-02-27T01:20:13.620Z,5.97
2023-02-27T01:22:41.520Z,5.94
2023-02-27T01:25:09.986Z,5.93
2023-02-27T01:27:37.828Z,5.94
2023-02-27T01:30:06.956Z,5.99
2023-02-27T01:32:34.876Z,6.01
2023-02-27T01:35:02.769Z,6.00
2023-02-27T01:37:32.084Z,6.00
2023-02-27T01:39:59.930Z,6.03
2023-02-27T01:42:28.667Z,6.06
2023-02-27T01:45:21.490Z,6.13
2023-02-27T01:47:51.021Z,6.15
2023-02-27T01:50:19.044Z,6.19
2023-02-27T01:52:50.427Z,6.21
2023-02-27T01:55:18.275Z,6.16
2023-02-27T01:57:46.508Z,6.15
2023-02-27T02:00:15.014Z,6.13
2023-02-27T02:02:46.076Z,6.12
2023-02-27T02:05:13.965Z,6.10
2023-02-27T02:07:41.857Z,6.03
2023-02-27T02:10:12.266Z,5.98
2023-02-27T02:12:40.121Z,5.90
2023-02-27T02:15:09.098Z,5.84
2023-02-27T02:17:40.206Z,5.86
2023-02-27T02:20:54.241Z,5.82
2023-02-27T02:24:09.327Z,5.72
2023-02-27T02:26:49.204Z,5.68
2023-02-27T02:29:55.961Z,5.67
2023-02-27T02:32:52.935Z,5.63
2023-02-27T02:35:54.143Z,5.63
2023-02-27T02:38:52.333Z,5.42
2023-02-27T02:41:24.158Z,5.57
2023-02-27T02:43:58.596Z,5.60
2023-02-27T02:46:30.559Z,5.51
2023-02-27T02:49:01.614Z,5.60
2023-02-27T02:51:32.697Z,5.62
2023-02-27T02:54:03.942Z,5.62
2023-02-27T02:56:33.825Z,5.61
2023-02-27T02:59:04.476Z,5.59
2023-02-27T03:01:33.792Z,5.54
2023-02-27T03:04:04.841Z,5.53
2023-02-27T03:06:33.708Z,5.47
2023-02-27T03:09:05.834Z,5.55
2023-02-27T03:11:35.966Z,5.52
2023-02-27T03:14:06.890Z,5.49
2023-02-27T03:16:36.214Z,5.43
2023-02-27T03:19:06.558Z,5.08
2023-02-27T03:21:36.669Z,5.35
2023-02-27T03:24:07.222Z,5.28
2023-02-27T03:26:36.544Z,5.33
2023-02-27T03:29:07.707Z,5.30
2023-02-27T03:31:38.711Z,5.25
2023-02-27T03:34:13.539Z,5.24
2023-02-27T03:36:45.761Z,5.15
2023-02-27T03:39:21.592Z,5.26
2023-02-27T03:41:51.397Z,5.30
2023-02-27T03:44:25.304Z,5.36
2023-02-27T03:46:53.179Z,5.36
2023-02-27T03:49:21.141Z,5.35
2023-02-27T03:51:49.020Z,5.32
2023-02-27T03:54:20.233Z,5.30
2023-02-27T03:56:50.866Z,5.22
2023-02-27T03:59:18.791Z,5.29
2023-02-27T04:01:46.711Z,5.22
2023-02-27T04:04:17.780Z,5.27
2023-02-27T04:07:04.443Z,5.13
2023-02-27T04:09:39.857Z,5.20
2023-02-27T04:12:17.246Z,5.18
2023-02-27T04:14:51.169Z,5.16
2023-02-27T04:17:25.538Z,5.12
2023-02-27T04:20:18.883Z,5.08
2023-02-27T04:22:48.322Z,5.04
2023-02-27T04:25:33.187Z,5.05
2023-02-27T04:28:06.394Z,5.04
2023-02-27T04:30:38.824Z,5.02
2023-02-27T04:33:09.051Z,5.02
2023-02-27T04:35:40.322Z,5.04
2023-02-27T04:38:11.933Z,5.07
2023-02-27T04:40:44.202Z,5.10
2023-02-27T04:43:12.128Z,5.08
2023-02-27T04:45:41.447Z,5.09
2023-02-27T04:48:12.166Z,5.06
2023-02-27T04:50:42.707Z,5.09
2023-02-27T04:53:13.058Z,5.08
2023-02-27T04:55:43.403Z,5.07
2023-02-27T04:58:13.932Z,5.09
2023-02-27T05:00:42.761Z,5.08
2023-02-27T05:03:12.831Z,4.93
2023-02-27T05:05:41.316Z,5.02
2023-02-27T05:08:11.120Z,5.08
2023-02-27T05:10:41.497Z,5.02
2023-02-27T05:13:11.835Z,5.14
2023-02-27T05:15:40.688Z,5.17
2023-02-27T05:18:09.659Z,4.83
2023-02-27T05:20:44.119Z,5.19
2023-02-27T05:23:15.067Z,5.21
2023-02-27T05:25:45.775Z,5.29
2023-02-27T05:28:17.428Z,5.36
2023-02-27T05:30:49.541Z,5.43
2023-02-27T05:33:19.214Z,5.50
2023-02-27T05:35:48.927Z,5.44
2023-02-27T05:38:19.680Z,5.65
2023-02-27T05:40:49.162Z,5.61
2023-02-27T05:43:20.284Z,5.74
2023-02-27T05:45:49.153Z,5.75
2023-02-27T05:48:19.856Z,5.79
2023-02-27T05:50:47.776Z,5.74
2023-02-27T05:53:16.480Z,5.83
2023-02-27T05:55:44.965Z,5.85
2023-02-27T05:58:15.933Z,5.86
2023-02-27T06:00:47.175Z,5.88
2023-02-27T06:03:15.134Z,5.86
2023-02-27T06:05:43.448Z,5.89
2023-02-27T06:08:11.709Z,5.91
2023-02-27T06:10:39.607Z,5.93
2023-02-27T06:13:07.529Z,5.94
2023-02-27T06:15:35.432Z,5.93
2023-02-27T06:18:04.902Z,5.93
2023-02-27T06:20:32.842Z,5.93
2023-02-27T06:23:00.691Z,5.91
2023-02-27T06:25:28.653Z,5.90
2023-02-27T06:27:56.526Z,5.86
2023-02-27T06:30:24.387Z,5.85
2023-02-27T06:32:52.328Z,5.85
2023-02-27T06:35:21.603Z,5.89
2023-02-27T06:37:49.453Z,5.86
2023-02-27T06:40:19.136Z,5.81
2023-02-27T06:42:47.159Z,5.74
2023-02-27T06:45:15.730Z,5.79
2023-02-27T06:47:43.679Z,5.76
2023-02-27T06:50:13.485Z,5.84
2023-02-27T06:52:42.807Z,5.83
2023-02-27T06:55:11.906Z,5.85
2023-02-27T06:57:39.816Z,5.84
2023-02-27T07:00:10.051Z,5.88
2023-02-27T07:02:38.002Z,5.90
2023-02-27T07:05:08.184Z,5.93
2023-02-27T07:07:38.626Z,6.00
2023-02-27T07:10:11.247Z,5.98
2023-02-27T07:12:39.338Z,6.08
2023-02-27T07:15:08.074Z,6.09
2023-02-27T07:17:36.150Z,6.09
2023-02-27T07:20:04.321Z,6.05
2023-02-27T07:22:32.168Z,5.91
2023-02-27T07:25:00.186Z,5.98
2023-02-27T07:27:29.442Z,5.90
2023-02-27T07:29:57.305Z,5.89
2023-02-27T07:32:25.176Z,5.87
2023-02-27T07:34:53.135Z,5.83
2023-02-27T07:37:21.262Z,5.85
2023-02-27T07:39:49.185Z,5.88
2023-02-27T07:42:17.074Z,5.86
2023-02-27T07:44:46.316Z,5.96
2023-02-27T07:47:14.179Z,6.05
2023-02-27T07:49:42.073Z,6.18
2023-02-27T07:52:11.264Z,6.31
2023-02-27T07:54:39.201Z,6.38
2023-02-27T07:57:07.330Z,6.54
2023-02-27T07:59:35.236Z,6.65
2023-02-27T08:02:04.552Z,6.72
2023-02-27T08:04:32.451Z,6.78
2023-02-27T08:07:00.728Z,6.86
2023-02-27T08:09:28.859Z,6.90
2023-02-27T08:11:56.750Z,6.89
2023-02-27T08:14:24.605Z,6.91
2023-02-27T08:16:52.469Z,6.93
2023-02-27T08:19:21.693Z,6.97
2023-02-27T08:21:49.866Z,6.95
2023-02-27T08:24:19.023Z,7.06
2023-02-27T08:26:50.059Z,7.14
2023-02-27T08:29:18.068Z,6.81
2023-02-27T08:31:46.872Z,7.20
2023-02-27T08:34:14.897Z,7.51
2023-02-27T08:36:44.539Z,7.50
2023-02-27T08:39:12.752Z,7.80
2023-02-27T08:41:40.871Z,7.90
2023-02-27T08:44:16.221Z,8.01
2023-02-27T08:46:44.130Z,8.26
2023-02-27T08:49:12.035Z,8.36
2023-02-27T08:51:39.939Z,8.45
2023-02-27T08:54:09.182Z,8.49
2023-02-27T08:56:39.300Z,8.55
2023-02-27T08:59:07.296Z,8.58
2023-02-27T09:01:35.694Z,8.61
2023-02-27T09:04:03.787Z,8.70
2023-02-27T09:06:32.228Z,8.76
2023-02-27T09:09:00.332Z,8.83
2023-02-27T09:11:30.128Z,8.84
2023-02-27T09:13:58.944Z,8.98
2023-02-27T09:16:27.236Z,9.05
2023-02-27T09:18:55.361Z,9.15
2023-02-27T09:21:23.894Z,9.23
2023-02-27T09:23:51.895Z,9.35
2023-02-27T09:26:19.741Z,9.46
2023-02-27T09:28:49.620Z,9.54
2023-02-27T09:31:17.716Z,9.66
2023-02-27T09:33:45.687Z,9.73
2023-02-27T09:36:13.866Z,9.84
2023-02-27T09:38:41.845Z,9.93
2023-02-27T09:41:23.614Z,9.88
2023-02-27T09:43:52.930Z,9.98
2023-02-27T09:46:21.919Z,10.09
2023-02-27T09:48:51.775Z,10.16
2023-02-27T09:51:19.812Z,10.28
2023-02-27T09:53:48.641Z,10.28
2023-02-27T09:56:18.558Z,10.54
2023-02-27T09:58:48.938Z,10.63
2023-02-27T10:01:21.949Z,10.68
2023-02-27T10:04:11.108Z,10.86
2023-02-27T10:06:41.166Z,11.00
2023-02-27T10:09:15.948Z,11.13
2023-02-27T10:11:50.398Z,11.19
2023-02-27T10:16:52.792Z,11.45
2023-02-27T10:19:24.945Z,11.61
2023-02-27T10:21:53.122Z,11.78
2023-02-27T10:24:24.361Z,11.62
2023-02-27T10:26:52.877Z,11.91
2023-02-27T10:29:28.396Z,11.93
2023-02-27T10:32:00.704Z,11.84
2023-02-27T10:34:28.905Z,11.83
2023-02-27T10:36:57.942Z,11.72
2023-02-27T10:39:26.021Z,11.57
2023-02-27T10:41:53.901Z,11.45
2023-02-27T10:44:22.067Z,11.38
2023-02-27T10:46:51.887Z,11.33
2023-02-27T10:49:22.180Z,11.31
2023-02-27T10:52:06.077Z,11.33
2023-02-27T10:54:33.964Z,11.34
2023-02-27T10:57:02.566Z,11.34
2023-02-27T10:59:32.628Z,11.31
2023-02-27T11:02:01.530Z,11.37
2023-02-27T11:04:35.119Z,11.58
2023-02-27T11:07:05.838Z,11.97
2023-02-27T11:09:34.076Z,11.77
2023-02-27T11:12:20.679Z,11.84
2023-02-27T11:14:52.775Z,12.40
2023-02-27T11:17:28.875Z,12.94
2023-02-27T11:19:58.341Z,13.37
2023-02-27T11:22:27.333Z,13.42
2023-02-27T11:25:11.962Z,13.41
2023-02-27T11:27:39.865Z,13.67
2023-02-27T11:30:22.536Z,13.98
2023-02-27T11:32:51.364Z,14.15
2023-02-27T11:35:24.684Z,14.00
2023-02-27T11:37:53.119Z,13.71
2023-02-27T11:40:22.275Z,13.74
2023-02-27T11:42:50.892Z,13.56
2023-02-27T11:46:25.634Z,13.40
2023-02-27T11:48:30.311Z,13.26
2023-02-27T11:51:19.387Z,13.08
2023-02-27T11:54:09.546Z,13.05
2023-02-27T11:56:39.176Z,13.05
2023-02-27T11:59:14.435Z,13.33
2023-02-27T12:01:45.577Z,13.78
2023-02-27T12:04:15.785Z,13.96
2023-02-27T12:06:46.592Z,13.93
2023-02-27T12:09:25.022Z,14.27
2023-02-27T12:11:53.230Z,14.51
2023-02-27T12:14:24.391Z,14.44
2023-02-27T12:16:54.123Z,14.22
2023-02-27T12:19:23.922Z,14.11
2023-02-27T12:21:54.318Z,13.91
2023-02-27T12:24:23.449Z,13.75
2023-02-27T12:26:53.555Z,13.67
2023-02-27T12:29:26.268Z,13.67
2023-02-27T12:31:55.467Z,13.77
2023-02-27T12:34:28.525Z,13.78
2023-02-27T12:37:01.112Z,13.71
2023-02-27T12:39:29.587Z,13.63
2023-02-27T12:42:33.234Z,13.53
2023-02-27T12:45:28.807Z,13.50
2023-02-27T12:48:04.968Z,13.50
2023-02-27T12:50:43.982Z,13.58
2023-02-27T12:53:35.620Z,13.52
2023-02-27T12:56:05.449Z,13.33
2023-02-27T12:58:39.496Z,13.16
2023-02-27T13:01:13.367Z,13.14
2023-02-27T13:03:44.569Z,13.08
2023-02-27T13:06:15.499Z,13.05
2023-02-27T13:09:11.364Z,13.18
2023-02-27T13:11:48.094Z,13.19
2023-02-27T13:14:24.339Z,13.16
2023-02-27T13:16:54.434Z,13.13
2023-02-27T13:19:25.461Z,13.10
2023-02-27T13:21:55.304Z,13.01
2023-02-27T13:24:26.716Z,12.94
2023-02-27T13:27:00.540Z,12.87
2023-02-27T13:29:34.993Z,12.85
2023-02-27T13:32:06.181Z,12.83
2023-02-27T13:34:35.838Z,12.79
2023-02-27T13:37:04.443Z,12.80
2023-02-27T13:39:41.334Z,12.83
2023-02-27T13:43:01.948Z,12.90
2023-02-27T13:45:56.940Z,13.16
2023-02-27T13:48:47.010Z,13.19
2023-02-27T13:51:54.976Z,14.01
2023-02-27T13:54:30.415Z,14.60
2023-02-27T13:57:21.396Z,15.00
2023-02-27T13:59:59.851Z,14.78
2023-02-27T14:02:58.125Z,14.24
2023-02-27T14:05:31.011Z,14.08
2023-02-27T14:08:01.285Z,13.85
2023-02-27T14:10:30.190Z,13.71
2023-02-27T14:12:59.732Z,13.69
2023-02-27T14:15:54.284Z,13.82
2023-02-27T14:18:52.381Z,13.76
2023-02-27T14:21:52.869Z,13.70
2023-02-27T14:24:21.210Z,13.53
2023-02-27T14:26:49.918Z,13.45
2023-02-27T14:29:21.471Z,13.34
2023-02-27T14:31:49.369Z,12.98
2023-02-27T14:34:18.867Z,13.22
2023-02-27T14:36:50.042Z,13.22
2023-02-27T14:39:21.037Z,13.15
2023-02-27T14:41:51.542Z,13.13
2023-02-27T14:44:21.934Z,13.13
2023-02-27T14:46:50.010Z,13.21
2023-02-27T14:49:20.056Z,13.26
2023-02-27T14:51:47.986Z,13.45
2023-02-27T14:54:16.937Z,13.67
2023-02-27T14:56:54.914Z,13.79
2023-02-27T14:59:30.667Z,13.81
2023-02-27T15:02:06.025Z,13.94
2023-02-27T15:04:34.090Z,13.91
2023-02-27T15:07:02.098Z,13.91
2023-02-27T15:09:34.248Z,13.77
2023-02-27T15:12:04.290Z,13.82
2023-02-27T15:14:36.069Z,13.84
2023-02-27T15:17:04.103Z,13.92
2023-02-27T15:19:34.365Z,14.00
2023-02-27T15:22:05.414Z,13.96
2023-02-27T15:24:47.780Z,13.83
2023-02-27T15:27:20.202Z,13.76
2023-02-27T15:29:52.174Z,13.63
2023-02-27T15:32:24.721Z,13.55
2023-02-27T15:34:52.604Z,13.50
2023-02-27T15:37:22.439Z,13.44
2023-02-27T15:39:50.796Z,13.47
2023-02-27T15:42:28.579Z,13.47
2023-02-27T15:44:58.489Z,13.50
2023-02-27T15:47:27.540Z,13.45
2023-02-27T15:50:01.177Z,13.43
2023-02-27T15:52:32.629Z,13.51
2023-02-27T15:55:02.185Z,13.43
2023-02-27T15:57:30.700Z,13.33
2023-02-27T16:00:00.533Z,13.29
2023-02-27T16:02:29.996Z,13.11
2023-02-27T16:04:57.995Z,13.12
2023-02-27T16:07:26.691Z,13.06
2023-02-27T16:09:55.933Z,13.00
2023-02-27T16:12:29.258Z,12.93
2023-02-27T16:15:21.292Z,12.86
2023-02-27T16:17:57.660Z,12.84
2023-02-27T16:20:38.647Z,12.79
2023-02-27T16:23:07.478Z,12.75
2023-02-27T16:25:35.350Z,12.71
2023-02-27T16:28:03.258Z,12.66
2023-02-27T16:30:33.025Z,12.67
2023-02-27T16:33:01.987Z,12.64
2023-02-27T16:35:30.529Z,12.51
2023-02-27T16:38:01.540Z,12.59
2023-02-27T16:40:29.868Z,12.59
2023-02-27T16:42:57.894Z,12.59
2023-02-27T16:45:26.740Z,12.59
2023-02-27T16:47:57.068Z,12.53
2023-02-27T16:50:26.132Z,12.60
2023-02-27T16:52:54.017Z,12.60
2023-02-27T16:55:21.942Z,12.57
2023-02-27T16:57:49.851Z,12.57
2023-02-27T17:00:18.742Z,12.55
2023-02-27T17:02:48.309Z,12.51
2023-02-27T17:05:17.837Z,12.48
2023-02-27T17:07:45.862Z,12.47
2023-02-27T17:10:15.368Z,12.44
2023-02-27T17:12:43.988Z,12.45
2023-02-27T17:15:12.134Z,12.43
2023-02-27T17:17:40.306Z,12.41
2023-02-27T17:20:10.383Z,12.34
2023-02-27T17:22:40.072Z,12.33
2023-02-27T17:25:09.329Z,12.34
2023-02-27T17:27:37.288Z,12.32
2023-02-27T17:30:05.676Z,12.31
2023-02-27T17:32:34.580Z,12.24
2023-02-27T17:35:02.427Z,12.22
2023-02-27T17:37:30.471Z,12.24
2023-02-27T17:39:59.718Z,12.21
2023-02-27T17:42:27.794Z,12.20
2023-02-27T17:44:55.670Z,12.18
2023-02-27T17:47:23.552Z,12.14
2023-02-27T17:49:51.401Z,12.12
2023-02-27T17:52:19.575Z,12.10
2023-02-27T17:54:47.511Z,12.07
2023-02-27T17:57:16.825Z,12.05
2023-02-27T17:59:44.757Z,12.02
2023-02-27T18:02:12.869Z,12.04
2023-02-27T18:04:40.727Z,12.01
2023-02-27T18:07:08.641Z,12.04
2023-02-27T18:09:36.564Z,12.02
2023-02-27T18:12:04.696Z,11.95
2023-02-27T18:14:34.944Z,12.01
2023-02-27T18:17:02.787Z,12.00
2023-02-27T18:19:32.442Z,11.99
2023-02-27T18:22:00.644Z,11.98
2023-02-27T18:24:28.547Z,11.98
2023-02-27T18:26:56.447Z,11.98
2023-02-27T18:29:24.317Z,11.97
2023-02-27T18:31:54.879Z,11.90
2023-02-27T18:34:22.787Z,11.97
2023-02-27T18:36:51.875Z,11.94
2023-02-27T18:39:19.796Z,11.94
2023-02-27T18:41:47.746Z,11.94
2023-02-27T18:44:15.633Z,11.94
2023-02-27T18:46:43.683Z,11.92
2023-02-27T18:49:13.270Z,11.92
2023-02-27T18:51:41.173Z,11.90
2023-02-27T18:54:09.062Z,11.90
2023-02-27T18:56:36.991Z,11.88
2023-02-27T18:59:06.655Z,11.85
2023-02-27T19:01:35.160Z,11.84
2023-02-27T19:04:04.872Z,11.81
2023-02-27T19:06:34.616Z,11.78
2023-02-27T19:09:02.528Z,11.76
2023-02-27T19:11:33.285Z,11.73
2023-02-27T19:14:01.449Z,11.74
2023-02-27T19:16:29.647Z,11.76
2023-02-27T19:18:57.910Z,11.77
2023-02-27T19:21:25.838Z,11.79
2023-02-27T19:23:55.123Z,11.81
2023-02-27T19:26:23.312Z,11.82
2023-02-27T19:28:51.867Z,11.82
2023-02-27T19:31:19.816Z,11.77
2023-02-27T19:33:47.846Z,11.80
2023-02-27T19:36:16.533Z,11.79
2023-02-27T19:38:44.442Z,11.77
2023-02-27T19:41:14.228Z,11.73
2023-02-27T19:43:42.146Z,11.64
2023-02-27T19:46:10.732Z,11.57
2023-02-27T19:48:38.694Z,11.53
2023-02-27T19:51:06.705Z,11.51
2023-02-27T19:53:35.696Z,11.48
2023-02-27T19:56:04.603Z,11.45
2023-02-27T19:58:33.962Z,11.35
2023-02-27T20:01:01.882Z,11.31
2023-02-27T20:03:30.133Z,11.18
2023-02-27T20:05:58.062Z,11.07
2023-02-27T20:08:25.985Z,10.97
2023-02-27T20:10:56.965Z,10.89
2023-02-27T20:13:24.850Z,10.80
2023-02-27T20:16:03.546Z,10.72
2023-02-27T20:18:32.910Z,10.67
2023-02-27T20:21:02.006Z,10.63
2023-02-27T20:23:29.870Z,10.62
2023-02-27T20:25:57.735Z,10.61
2023-02-27T20:28:25.625Z,10.61
2023-02-27T20:30:53.484Z,10.62
2023-02-27T20:33:22.706Z,10.64
2023-02-27T20:35:50.611Z,10.67
2023-02-27T20:38:19.978Z,10.72
2023-02-27T20:40:47.817Z,10.76
2023-02-27T20:43:15.665Z,10.81
2023-02-27T20:45:43.566Z,10.82
2023-02-27T20:48:11.436Z,10.83
2023-02-27T20:50:40.696Z,10.50
2023-02-27T20:53:08.629Z,10.89
2023-02-27T20:55:36.454Z,10.91
2023-02-27T20:58:04.377Z,10.95
2023-02-27T21:00:32.255Z,10.96
2023-02-27T21:03:00.824Z,10.99
2023-02-27T21:05:28.731Z,11.02
2023-02-27T21:07:58.027Z,11.00
2023-02-27T21:10:25.959Z,11.03
2023-02-27T21:12:53.825Z,11.01
2023-02-27T21:15:21.725Z,10.92
2023-02-27T21:17:49.553Z,10.86
2023-02-27T21:20:17.473Z,10.78
2023-02-27T21:22:45.344Z,10.68
2023-02-27T21:25:15.125Z,10.61
2023-02-27T21:27:43.089Z,10.51
2023-02-27T21:30:12.366Z,10.44
2023-02-27T21:32:40.233Z,10.37
2023-02-27T21:35:08.664Z,10.32
2023-02-27T21:37:36.536Z,10.29
2023-02-27T21:40:04.765Z,10.30
2023-02-27T21:42:34.009Z,10.00
2023-02-27T21:45:01.901Z,10.29
2023-02-27T21:47:30.131Z,10.30
2023-02-27T21:49:57.980Z,10.33
2023-02-27T21:52:25.862Z,10.33
2023-02-27T21:54:54.279Z,10.32
2023-02-27T21:57:23.028Z,10.33
2023-02-27T21:59:52.498Z,10.39
2023-02-27T22:02:20.389Z,10.44
2023-02-27T22:04:48.320Z,10.51
2023-02-27T22:07:16.203Z,10.57
2023-02-27T22:09:44.138Z,10.63
2023-02-27T22:12:12.557Z,10.69
2023-02-27T22:14:43.218Z,10.74
2023-02-27T22:17:12.482Z,10.80
2023-02-27T22:19:40.335Z,10.85
2023-02-27T22:22:08.220Z,10.91
2023-02-27T22:24:36.082Z,10.97
2023-02-27T22:27:04.476Z,11.00
2023-02-27T22:29:32.657Z,11.05
2023-02-27T22:32:00.595Z,11.10
2023-02-27T22:34:29.903Z,11.10
2023-02-27T22:36:58.033Z,11.13
2023-02-27T22:39:25.904Z,11.15
2023-02-27T22:41:54.885Z,11.15
2023-02-27T22:44:24.415Z,11.18
2023-02-27T22:46:52.993Z,11.13
2023-02-27T22:49:21.909Z,11.19
2023-02-27T22:51:51.970Z,11.19
2023-02-27T22:54:20.328Z,11.23
2023-02-27T22:56:50.418Z,11.24
2023-02-27T22:59:18.287Z,11.19
2023-02-27T23:01:46.602Z,11.21
2023-02-27T23:04:17.016Z,11.18
2023-02-27T23:06:44.945Z,10.92
2023-02-27T23:09:15.149Z,11.11
2023-02-27T23:11:43.146Z,11.06
2023-02-27T23:14:11.037Z,11.01
2023-02-27T23:16:40.037Z,10.91
2023-02-27T23:19:08.025Z,10.80
2023-02-27T23:21:36.585Z,10.68
2023-02-27T23:24:05.510Z,10.56
2023-02-27T23:26:36.140Z,10.44
2023-02-27T23:29:04.053Z,10.35
2023-02-27T23:31:34.677Z,10.26
2023-02-27T23:34:03.414Z,10.17
2023-02-27T23:36:31.302Z,9.99
2023-02-27T23:38:59.343Z,10.02
2023-02-27T23:41:27.843Z,9.98
2023-02-27T23:43:57.286Z,9.86
2023-02-27T23:46:30.169Z,9.87
2023-02-27T23:48:59.079Z,9.83
2023-02-27T23:51:29.072Z,9.78
2023-02-27T23:53:58.092Z,9.75
2023-02-27T23:56:26.896Z,9.70
2023-02-27T23:58:55.845Z,9.68
